createdAt,value
2023-01-27T00:01:24.738Z,102105.13
2023-01-27T00:04:27.831Z,102101.63
2023-01-27T00:07:30.654Z,102106.03
2023-01-27T00:10:33.522Z,102099.78
2023-01-27T00:13:35.368Z,102097.13
2023-01-27T00:16:39.569Z,102099.78
2023-01-27T00:19:44.624Z,102102.50
2023-01-27T00:23:10.137Z,102106.94
2023-01-27T00:26:14.701Z,102112.28
2023-01-27T00:29:18.662Z,102105.22
2023-01-27T00:32:40.225Z,102109.63
2023-01-27T00:35:44.804Z,102105.22
2023-01-27T00:38:47.590Z,102107.88
2023-01-27T00:41:50.778Z,102113.22
2023-01-27T00:45:11.019Z,102112.38
2023-01-27T00:48:15.294Z,102115.94
2023-01-27T00:51:22.034Z,102117.78
2023-01-27T00:54:25.009Z,102118.69
2023-01-27T00:57:27.845Z,102123.13
2023-01-27T01:00:30.679Z,102119.63
2023-01-27T01:03:37.598Z,102126.78
2023-01-27T01:06:40.463Z,102123.28
2023-01-27T01:09:43.299Z,102123.34
2023-01-27T01:12:46.234Z,102126.84
2023-01-27T01:15:49.098Z,102127.75
2023-01-27T01:18:53.583Z,102132.16
2023-01-27T01:21:57.378Z,102126.78
2023-01-27T01:25:00.326Z,102125.84
2023-01-27T01:28:07.283Z,102128.56
2023-01-27T01:31:13.058Z,102126.78
2023-01-27T01:34:17.361Z,102134.81
2023-01-27T01:37:20.299Z,102133.06
2023-01-27T01:40:25.643Z,102135.78
2023-01-27T01:43:28.890Z,102139.34
2023-01-27T01:46:31.774Z,102135.84
2023-01-27T01:49:39.989Z,102131.44
2023-01-27T01:52:43.019Z,102134.13
2023-01-27T01:55:47.181Z,102130.44
2023-01-27T01:58:50.724Z,102128.63
2023-01-27T02:01:57.162Z,102133.00
2023-01-27T02:05:07.425Z,102123.19
2023-01-27T02:08:15.231Z,102125.03
2023-01-27T02:11:20.610Z,102125.03
2023-01-27T02:14:23.505Z,102125.97
2023-01-27T02:17:26.423Z,102121.50
2023-01-27T02:20:36.807Z,102126.03
2023-01-27T02:23:49.289Z,102130.53
2023-01-27T02:26:53.595Z,102127.03
2023-01-27T02:29:56.934Z,102125.19
2023-01-27T02:32:59.768Z,102124.28
2023-01-27T02:36:04.927Z,102125.13
2023-01-27T02:39:10.475Z,102128.63
2023-01-27T02:42:16.628Z,102131.28
2023-01-27T02:45:19.662Z,102128.63
2023-01-27T02:48:22.692Z,102145.47
2023-01-27T02:51:25.694Z,102140.19
2023-01-27T02:54:30.569Z,102145.50
2023-01-27T02:57:35.769Z,102144.66
2023-01-27T03:00:59.053Z,102139.44
2023-01-27T03:04:02.404Z,102151.94
2023-01-27T03:07:05.292Z,102151.94
2023-01-27T03:10:09.468Z,102161.66
2023-01-27T03:13:13.664Z,102157.16
2023-01-27T03:16:33.843Z,102155.31
2023-01-27T03:19:36.773Z,102150.00
2023-01-27T03:22:39.761Z,102150.88
2023-01-27T03:25:44.625Z,102153.50
2023-01-27T03:29:09.162Z,102150.00
2023-01-27T03:32:15.929Z,102155.31
2023-01-27T03:35:34.181Z,102153.66
2023-01-27T03:38:55.091Z,102152.84
2023-01-27T03:42:15.343Z,102154.66
2023-01-27T03:45:37.248Z,102161.75
2023-01-27T03:48:40.166Z,102153.78
2023-01-27T03:51:43.033Z,102150.16
2023-01-27T03:54:45.933Z,102150.16
2023-01-27T03:57:49.454Z,102147.44
2023-01-27T04:00:55.295Z,102143.00
2023-01-27T04:04:16.382Z,102144.78
2023-01-27T04:07:19.969Z,102134.13
2023-01-27T04:10:22.768Z,102142.06
2023-01-27T04:13:24.694Z,102144.72
2023-01-27T04:16:30.245Z,102140.34
2023-01-27T04:19:33.950Z,102142.09
2023-01-27T04:22:36.976Z,102132.34
2023-01-27T04:25:39.867Z,102139.44
2023-01-27T04:28:45.041Z,102142.09
2023-01-27T04:31:49.799Z,102148.28
2023-01-27T04:34:52.641Z,102148.28
2023-01-27T04:37:55.487Z,102144.72
2023-01-27T04:40:58.337Z,102144.66
2023-01-27T04:44:01.363Z,102152.72
2023-01-27T04:47:05.661Z,102150.94
2023-01-27T04:50:09.592Z,102156.28
2023-01-27T04:53:12.413Z,102161.66
2023-01-27T04:56:27.656Z,102162.59
2023-01-27T04:59:30.927Z,102160.81
2023-01-27T05:02:35.301Z,102167.91
2023-01-27T05:05:38.655Z,102166.16
2023-01-27T05:08:41.898Z,102171.47
2023-01-27T05:11:45.143Z,102167.94
2023-01-27T05:14:47.995Z,102172.34
2023-01-27T05:17:52.770Z,102176.81
2023-01-27T05:20:59.285Z,102192.78
2023-01-27T05:24:03.521Z,102191.91
2023-01-27T05:27:06.351Z,102192.84
2023-01-27T05:30:10.398Z,102194.63
2023-01-27T05:33:14.581Z,102198.22
2023-01-27T05:36:19.390Z,102203.53
2023-01-27T05:39:22.274Z,102203.53
2023-01-27T05:42:25.170Z,102209.75
2023-01-27T05:45:28.002Z,102207.09
2023-01-27T05:48:32.653Z,102207.09
2023-01-27T05:51:39.583Z,102197.34
2023-01-27T05:54:42.357Z,102207.06
2023-01-27T05:57:45.256Z,102212.38
2023-01-27T06:00:48.265Z,102204.38
2023-01-27T06:03:53.331Z,102213.25
2023-01-27T06:06:56.181Z,102211.53
2023-01-27T06:09:59.049Z,102205.28
2023-01-27T06:13:01.830Z,102215.94
2023-01-27T06:16:06.246Z,102223.03
2023-01-27T06:19:11.383Z,102221.19
2023-01-27T06:22:14.278Z,102222.09
2023-01-27T06:25:17.408Z,102230.03
2023-01-27T06:28:28.680Z,102226.47
2023-01-27T06:31:32.708Z,102234.47
2023-01-27T06:34:37.296Z,102237.06
2023-01-27T06:37:40.140Z,102234.41
2023-01-27T06:40:43.331Z,102234.41
2023-01-27T06:43:46.125Z,102229.13
2023-01-27T06:46:48.927Z,102233.56
2023-01-27T06:49:53.154Z,102246.06
2023-01-27T06:53:01.313Z,102249.66
2023-01-27T06:56:04.287Z,102251.47
2023-01-27T06:59:07.241Z,102255.88
2023-01-27T07:02:10.979Z,102248.72
2023-01-27T07:05:15.607Z,102259.44
2023-01-27T07:08:18.539Z,102262.00
2023-01-27T07:11:21.399Z,102271.78
2023-01-27T07:14:24.203Z,102273.53
2023-01-27T07:17:27.082Z,102278.84
2023-01-27T07:20:32.717Z,102285.13
2023-01-27T07:23:35.622Z,102285.13
2023-01-27T07:26:38.539Z,102297.50
2023-01-27T07:29:41.394Z,102288.69
2023-01-27T07:32:44.204Z,102285.19
2023-01-27T07:35:49.861Z,102288.72
2023-01-27T07:38:53.007Z,102290.50
2023-01-27T07:41:55.843Z,102294.09
2023-01-27T07:44:58.761Z,102287.00
2023-01-27T07:48:02.188Z,102301.22
2023-01-27T07:51:06.592Z,102303.88
2023-01-27T07:54:09.799Z,102308.44
2023-01-27T07:57:12.894Z,102305.91
2023-01-27T08:00:16.865Z,102300.59
2023-01-27T08:03:23.831Z,102299.72
2023-01-27T08:06:28.577Z,102311.06
2023-01-27T08:09:31.507Z,102311.66
2023-01-27T08:12:34.318Z,102311.38
2023-01-27T08:15:37.183Z,102307.44
2023-01-27T08:18:40.343Z,102304.44
2023-01-27T08:21:44.598Z,102312.94
2023-01-27T08:24:47.630Z,102310.00
2023-01-27T08:27:52.181Z,102305.38
2023-01-27T08:30:55.360Z,102314.06
2023-01-27T08:33:58.253Z,102314.88
2023-01-27T08:37:02.859Z,102311.25
2023-01-27T08:40:06.534Z,102314.75
2023-01-27T08:43:09.642Z,102307.69
2023-01-27T08:46:12.940Z,102327.25
2023-01-27T08:49:15.858Z,102318.38
2023-01-27T08:52:20.580Z,102339.72
2023-01-27T08:55:23.546Z,102324.59
2023-01-27T08:58:27.226Z,102327.31
2023-01-27T09:01:30.183Z,102335.41
2023-01-27T09:04:33.371Z,102335.44
2023-01-27T09:07:37.715Z,102339.94
2023-01-27T09:10:41.392Z,102342.72
2023-01-27T09:13:44.791Z,102347.16
2023-01-27T09:16:47.652Z,102354.31
2023-01-27T09:19:50.566Z,102350.81
2023-01-27T09:22:56.005Z,102358.91
2023-01-27T09:25:59.314Z,102363.41
2023-01-27T09:29:02.129Z,102359.91
2023-01-27T09:32:05.305Z,102362.59
2023-01-27T09:35:09.371Z,102372.41
2023-01-27T09:38:17.683Z,102368.03
2023-01-27T09:41:47.231Z,102376.94
2023-01-27T09:45:26.371Z,102377.91
2023-01-27T09:48:42.322Z,102382.38
2023-01-27T09:51:59.570Z,102375.25
2023-01-27T09:55:08.714Z,102385.03
2023-01-27T09:58:19.349Z,102382.38
2023-01-27T10:01:33.867Z,102382.38
2023-01-27T10:04:53.697Z,102386.81
2023-01-27T10:08:13.539Z,102393.91
2023-01-27T10:11:25.613Z,102388.56
2023-01-27T10:14:39.844Z,102392.97
2023-01-27T10:17:50.781Z,102386.69
2023-01-27T10:21:01.897Z,102388.47
2023-01-27T10:24:11.441Z,102393.81
2023-01-27T10:27:22.049Z,102394.69
2023-01-27T10:30:33.590Z,102397.31
2023-01-27T10:33:49.628Z,102399.97
2023-01-27T10:37:05.789Z,102391.09
2023-01-27T10:40:17.881Z,102398.19
2023-01-27T10:43:33.441Z,102402.59
2023-01-27T10:46:51.885Z,102400.81
2023-01-27T10:49:59.364Z,102389.28
2023-01-27T10:53:10.878Z,102390.19
2023-01-27T10:56:24.578Z,102395.53
2023-01-27T10:59:36.551Z,102399.09
2023-01-27T11:02:45.779Z,102396.41
2023-01-27T11:05:52.186Z,102395.47
2023-01-27T11:09:06.761Z,102403.44
2023-01-27T11:12:13.711Z,102411.44
2023-01-27T11:15:26.406Z,102406.97
2023-01-27T11:18:31.531Z,102410.59
2023-01-27T11:21:35.509Z,102407.03
2023-01-27T11:24:46.232Z,102408.81
2023-01-27T11:28:01.942Z,102404.41
2023-01-27T11:31:17.626Z,102407.09
2023-01-27T11:34:28.021Z,102401.75
2023-01-27T11:37:35.117Z,102401.75
2023-01-27T11:40:41.221Z,102405.34
2023-01-27T11:43:44.382Z,102408.94
2023-01-27T11:46:50.184Z,102408.09
2023-01-27T11:49:55.079Z,102412.56
2023-01-27T11:53:05.806Z,102410.75
2023-01-27T11:56:16.353Z,102404.56
2023-01-27T11:59:22.722Z,102410.75
2023-01-27T12:02:33.294Z,102417.91
2023-01-27T12:05:42.243Z,102406.31
2023-01-27T12:08:46.830Z,102412.53
2023-01-27T12:11:49.657Z,102412.53
2023-01-27T12:14:55.100Z,102408.06
2023-01-27T12:18:02.016Z,102401.81
2023-01-27T12:21:08.035Z,102408.91
2023-01-27T12:24:23.811Z,102407.97
2023-01-27T12:27:29.717Z,102402.66
2023-01-27T12:30:35.574Z,102404.44
2023-01-27T12:33:46.402Z,102415.16
2023-01-27T12:36:51.049Z,102407.16
2023-01-27T12:40:00.408Z,102412.47
2023-01-27T12:43:13.072Z,102409.84
2023-01-27T12:46:22.589Z,102418.75
2023-01-27T12:49:33.527Z,102406.31
2023-01-27T12:52:36.624Z,102409.03
2023-01-27T12:55:42.311Z,102402.81
2023-01-27T12:58:47.645Z,102409.03
2023-01-27T13:02:01.023Z,102409.03
2023-01-27T13:05:09.804Z,102415.25
2023-01-27T13:08:17.733Z,102409.91
2023-01-27T13:11:34.007Z,102411.63
2023-01-27T13:14:42.556Z,102401.91
2023-01-27T13:17:48.167Z,102407.19
2023-01-27T13:20:59.793Z,102398.25
2023-01-27T13:24:07.627Z,102403.59
2023-01-27T13:27:15.933Z,102403.56
2023-01-27T13:30:27.713Z,102409.81
2023-01-27T13:33:40.518Z,102391.16
2023-01-27T13:36:50.147Z,102404.47
2023-01-27T13:40:00.946Z,102409.81
2023-01-27T13:43:11.885Z,102412.47
2023-01-27T13:46:23.692Z,102404.53
2023-01-27T13:49:40.695Z,102406.31
2023-01-27T13:52:46.177Z,102411.56
2023-01-27T13:56:01.430Z,102418.66
2023-01-27T13:59:19.821Z,102418.66
2023-01-27T14:02:49.915Z,102406.25
2023-01-27T14:06:10.817Z,102412.47
2023-01-27T14:09:31.875Z,102423.19
2023-01-27T14:12:51.848Z,102424.09
2023-01-27T14:16:06.087Z,102426.81
2023-01-27T14:19:25.249Z,102424.13
2023-01-27T14:22:38.319Z,102420.63
2023-01-27T14:25:50.465Z,102421.53
2023-01-27T14:29:05.616Z,102420.69
2023-01-27T14:32:20.319Z,102420.69
2023-01-27T14:35:32.562Z,102421.56
2023-01-27T14:38:43.617Z,102429.53
2023-01-27T14:41:55.841Z,102417.13
2023-01-27T14:45:07.199Z,102421.63
2023-01-27T14:48:23.091Z,102426.13
2023-01-27T14:51:36.047Z,102437.72
2023-01-27T14:54:58.963Z,102445.78
2023-01-27T14:58:18.816Z,102444.06
2023-01-27T15:01:30.686Z,102441.44
2023-01-27T15:04:42.085Z,102449.44
2023-01-27T15:07:52.020Z,102439.72
2023-01-27T15:11:03.150Z,102439.78
2023-01-27T15:14:29.597Z,102441.53
2023-01-27T15:17:48.845Z,102451.31
2023-01-27T15:21:23.571Z,102448.59
2023-01-27T15:24:52.520Z,102461.03
2023-01-27T15:27:55.733Z,102468.19
2023-01-27T15:31:26.089Z,102469.09
2023-01-27T15:34:29.970Z,102482.38
2023-01-27T15:37:32.906Z,102478.84
2023-01-27T15:40:57.234Z,102479.69
2023-01-27T15:44:16.855Z,102484.13
2023-01-27T15:47:26.272Z,102478.84
2023-01-27T15:50:33.188Z,102498.50
2023-01-27T15:53:39.266Z,102500.31
2023-01-27T15:56:46.683Z,102496.72
2023-01-27T15:59:58.709Z,102498.50
2023-01-27T16:03:07.232Z,102505.56
2023-01-27T16:06:15.694Z,102499.34
2023-01-27T16:09:25.470Z,102500.22
2023-01-27T16:12:40.163Z,102504.66
2023-01-27T16:15:42.976Z,102504.75
2023-01-27T16:18:52.629Z,102513.59
2023-01-27T16:21:59.389Z,102510.00
2023-01-27T16:25:14.221Z,102508.25
2023-01-27T16:28:22.304Z,102517.97
2023-01-27T16:31:29.197Z,102519.75
2023-01-27T16:34:39.242Z,102526.00
2023-01-27T16:37:57.038Z,102519.75
2023-01-27T16:41:02.249Z,102533.09
2023-01-27T16:44:08.866Z,102545.50
2023-01-27T16:47:21.252Z,102525.06
2023-01-27T16:50:37.421Z,102537.47
2023-01-27T16:53:46.012Z,102540.16
2023-01-27T16:56:51.683Z,102534.81
2023-01-27T16:59:57.014Z,102537.47
2023-01-27T17:03:03.883Z,102541.03
2023-01-27T17:06:15.250Z,102540.09
2023-01-27T17:09:23.651Z,102544.56
2023-01-27T17:12:32.215Z,102548.09
2023-01-27T17:15:38.986Z,102540.09
2023-01-27T17:18:52.223Z,102556.09
2023-01-27T17:22:00.148Z,102556.09
2023-01-27T17:25:07.741Z,102557.00
2023-01-27T17:28:14.050Z,102553.47
2023-01-27T17:31:21.689Z,102553.47
2023-01-27T17:34:25.718Z,102551.69
2023-01-27T17:37:31.796Z,102551.75
2023-01-27T17:40:40.294Z,102561.53
2023-01-27T17:43:45.540Z,102557.06
2023-01-27T17:46:48.431Z,102559.69
2023-01-27T17:49:52.433Z,102560.63
2023-01-27T17:52:57.734Z,102561.47
2023-01-27T17:56:01.668Z,102578.41
2023-01-27T17:59:08.880Z,102574.94
2023-01-27T18:02:18.918Z,102577.69
2023-01-27T18:05:23.390Z,102581.25
2023-01-27T18:08:27.668Z,102584.81
2023-01-27T18:11:33.792Z,102585.69
2023-01-27T18:14:36.936Z,102582.09
2023-01-27T18:17:39.930Z,102592.66
2023-01-27T18:20:42.861Z,102589.84
2023-01-27T18:23:48.868Z,102602.13
2023-01-27T18:26:51.814Z,102597.53
2023-01-27T18:30:00.476Z,102613.38
2023-01-27T18:33:06.710Z,102600.88
2023-01-27T18:36:22.053Z,102607.06
2023-01-27T18:39:35.979Z,102611.50
2023-01-27T18:42:38.824Z,102610.63
2023-01-27T18:45:43.095Z,102617.78
2023-01-27T18:48:46.108Z,102624.94
2023-01-27T18:51:49.968Z,102628.53
2023-01-27T18:54:59.624Z,102625.00
2023-01-27T18:58:02.886Z,102633.06
2023-01-27T19:01:13.626Z,102633.97
2023-01-27T19:04:16.497Z,102636.69
2023-01-27T19:07:19.797Z,102639.38
2023-01-27T19:10:26.152Z,102635.00
2023-01-27T19:13:29.526Z,102638.56
2023-01-27T19:16:33.609Z,102638.56
2023-01-27T19:19:37.551Z,102644.84
2023-01-27T19:22:40.352Z,102647.50
2023-01-27T19:25:46.657Z,102639.53
2023-01-27T19:28:52.312Z,102643.06
2023-01-27T19:31:55.348Z,102644.84
2023-01-27T19:34:58.212Z,102655.56
2023-01-27T19:38:05.537Z,102657.34
2023-01-27T19:41:10.605Z,102656.41
2023-01-27T19:44:13.929Z,102656.38
2023-01-27T19:47:16.741Z,102656.38
2023-01-27T19:50:22.773Z,102657.25
2023-01-27T19:53:25.644Z,102662.63
2023-01-27T19:56:32.177Z,102665.34
2023-01-27T19:59:35.151Z,102660.94
2023-01-27T20:02:39.306Z,102668.09
2023-01-27T20:05:42.152Z,102673.53
2023-01-27T20:08:45.090Z,102670.97
2023-01-27T20:11:49.398Z,102670.19
2023-01-27T20:14:52.364Z,102672.91
2023-01-27T20:17:56.100Z,102668.38
2023-01-27T20:20:59.059Z,102671.91
2023-01-27T20:24:02.532Z,102676.38
2023-01-27T20:27:06.849Z,102685.19
2023-01-27T20:30:15.069Z,102682.47
2023-01-27T20:33:17.963Z,102685.94
2023-01-27T20:36:22.980Z,102687.66
2023-01-27T20:39:25.840Z,102692.06
2023-01-27T20:42:30.904Z,102683.22
2023-01-27T20:45:33.782Z,102685.91
2023-01-27T20:48:36.951Z,102681.53
2023-01-27T20:51:39.829Z,102675.31
2023-01-27T20:54:42.757Z,102682.47
2023-01-27T20:57:47.072Z,102674.47
2023-01-27T21:00:49.918Z,102677.13
2023-01-27T21:03:52.833Z,102677.19
2023-01-27T21:06:55.821Z,102683.44
2023-01-27T21:09:59.087Z,102687.91
2023-01-27T21:13:03.339Z,102693.25
2023-01-27T21:16:06.679Z,102687.91
2023-01-27T21:19:09.714Z,102686.16
2023-01-27T21:22:12.616Z,102691.44
2023-01-27T21:25:16.032Z,102683.44
2023-01-27T21:28:22.127Z,102686.94
2023-01-27T21:31:29.953Z,102686.03
2023-01-27T21:34:33.042Z,102677.19
2023-01-27T21:37:40.223Z,102676.28
2023-01-27T21:40:43.113Z,102681.63
2023-01-27T21:44:04.538Z,102682.56
2023-01-27T21:47:08.401Z,102679.94
2023-01-27T21:50:14.495Z,102677.28
2023-01-27T21:53:17.668Z,102670.16
2023-01-27T21:56:20.710Z,102676.41
2023-01-27T21:59:24.928Z,102671.09
2023-01-27T22:02:29.416Z,102678.13
2023-01-27T22:05:33.804Z,102676.28
2023-01-27T22:08:37.139Z,102678.06
2023-01-27T22:11:40.047Z,102681.59
2023-01-27T22:14:44.627Z,102682.47
2023-01-27T22:17:47.701Z,102683.34
2023-01-27T22:20:50.601Z,102693.06
2023-01-27T22:23:53.578Z,102691.34
2023-01-27T22:26:56.714Z,102686.16
2023-01-27T22:30:00.980Z,102680.88
2023-01-27T22:33:04.221Z,102682.69
2023-01-27T22:36:08.301Z,102683.56
2023-01-27T22:39:11.540Z,102687.97
2023-01-27T22:42:14.484Z,102680.88
2023-01-27T22:45:19.388Z,102678.19
2023-01-27T22:48:22.285Z,102679.09
2023-01-27T22:51:25.199Z,102678.16
2023-01-27T22:54:28.073Z,102677.25
2023-01-27T22:57:31.588Z,102667.44
2023-01-27T23:00:35.789Z,102666.59
2023-01-27T23:03:38.830Z,102659.53
2023-01-27T23:06:41.705Z,102659.63
2023-01-27T23:09:44.539Z,102657.00
2023-01-27T23:12:47.453Z,102648.97
2023-01-27T23:15:51.861Z,102651.72
2023-01-27T23:18:54.788Z,102645.66
2023-01-27T23:21:57.630Z,102647.53
2023-01-27T23:25:00.640Z,102649.34
2023-01-27T23:28:03.556Z,102640.50
2023-01-27T23:31:11.418Z,102637.00
2023-01-27T23:34:14.430Z,102638.81
2023-01-27T23:37:17.299Z,102635.34
2023-01-27T23:40:20.302Z,102644.22
2023-01-27T23:43:23.706Z,102644.22
2023-01-27T23:46:28.062Z,102638.84
2023-01-27T23:49:30.972Z,102638.81
2023-01-27T23:52:34.890Z,102636.06
2023-01-27T23:55:37.773Z,102639.53
2023-01-27T23:58:40.719Z,102648.38
